Date,TemperatureHighF,TemperatureAvgF,TemperatureLowF,DewpointHighF,DewpointAvgF,DewpointLowF,HumidityHigh,HumidityAvg,HumidityLow,PressureMaxIn,PressureMinIn,WindSpeedMaxMPH,WindSpeedAvgMPH,GustSpeedMaxMPH,PrecipitationSumIn
2013-8-1,59.8,57.2,54.1,56.1,54.6,52.4,95,91,86,30.11,29.99,32,17,35,0.00
2013-8-2,57.9,55.0,51.9,54.9,53.0,50.7,97,94,89,30.02,29.95,20,10,22,0.00
2013-8-3,58.1,54.5,51.8,54.8,52.9,50.9,98,95,88,30.01,29.96,16,9,20,0.00
2013-8-4,56.6,54.5,52.3,54.9,52.9,51.7,98,95,88,30.05,30.00,23,10,24,0.00
2013-8-5,55.7,54.2,52.7,54.3,53.0,51.5,98,96,90,30.06,29.99,22,11,25,0.00
2013-8-6,60.0,56.3,53.7,57.2,54.3,52.1,98,93,86,30.07,30.00,16,9,19,0.00
2013-8-7,62.5,58.7,55.4,58.7,56.7,54.5,99,93,83,30.14,30.06,17,7,20,0.00
2013-8-8,60.4,57.3,54.4,57.7,56.0,52.9,99,96,87,30.06,29.98,24,11,29,0.02
2013-8-9,60.4,56.6,54.0,57.6,55.4,52.9,99,96,89,30.02,29.95,20,11,22,0.00
2013-8-10,60.7,57.8,55.3,58.1,56.3,54.7,99,95,88,30.09,30.02,18,12,22,0.00
2013-8-11,57.1,55.3,53.4,56.2,54.6,53.1,99,98,93,30.06,29.99,18,12,22,0.00
2013-8-12,60.1,55.9,53.9,56.9,55.0,53.5,99,97,88,30.03,29.97,19,9,20,0.00
2013-8-13,60.5,58.2,55.7,57.4,55.4,54.0,95,91,86,30.02,29.96,14,7,17,0.00
2013-8-14,63.1,58.1,54.1,59.8,56.4,53.2,98,94,87,30.02,29.94,23,11,27,0.00
2013-8-15,63.6,60.3,57.9,61.8,59.5,57.6,99,98,93,30.00,29.93,16,8,19,0.00
2013-8-16,60.8,58.2,56.6,59.9,58.0,56.3,100,99,97,30.04,29.97,23,8,27,0.02
2013-8-17,63.2,58.8,55.8,59.9,57.3,55.5,100,95,89,30.02,29.90,28,10,33,0.00
2013-8-18,59.7,57.3,55.7,58.0,56.4,55.1,99,97,94,29.92,29.82,14,6,17,0.00
2013-8-19,60.4,57.6,54.8,58.5,56.9,54.5,100,97,92,29.95,29.83,21,8,22,0.00
2013-8-20,62.6,58.9,56.4,58.9,57.3,56.1,99,95,87,29.94,29.87,20,10,23,0.00
2013-8-21,62.8,59.7,57.6,58.5,56.5,55.2,94,89,83,29.97,29.91,19,9,21,0.00
2013-8-22,61.8,59.6,57.8,57.1,55.9,55.1,92,88,83,30.01,29.93,24,13,24,0.00
2013-8-23,59.5,57.5,55.7,57.1,55.4,53.9,95,93,90,29.96,29.85,27,13,29,0.00
2013-8-24,62.1,58.5,55.9,59.5,56.9,55.0,98,95,89,29.94,29.86,28,13,30,0.00
2013-8-25,63.1,61.1,59.3,62.3,60.2,58.4,99,97,91,29.97,29.91,12,5,14,0.01
2013-8-26,62.7,59.9,58.0,59.8,58.0,56.8,99,94,86,30.04,29.93,29,10,34,0.00
2013-8-27,61.5,57.6,53.9,60.0,56.9,53.6,100,98,94,29.93,29.86,26,8,30,0.00
2013-8-28,64.0,60.0,56.7,62.7,59.6,56.6,100,99,94,29.97,29.88,18,8,19,0.00
2013-8-29,65.1,61.0,59.3,62.7,60.5,59.2,100,98,90,30.09,29.97,20,6,24,0.00
2013-8-30,66.2,60.5,57.8,62.3,59.4,57.5,100,96,87,30.07,29.96,21,6,28,0.01
2013-8-31,61.1,57.9,55.8,59.5,57.4,55.5,100,98,94,30.02,29.93,22,11,24,0.00